Historique des mesures à Cassis (13260), France
Quotidien Résumé Mai 28, 2017 Unités:  US    Métrique   Métrique/US
« Précédent (Jour)
Suivant (Jour) »
Quotidien Hebdomadaire Mensuel Annuel Période au choix
  Maximum: Minimum: Moyenne:
Température: 32 °F 65.8 °F 73.4 °F
Point de rosée: 32 °F 44.4 °F 51.4 °F
Humidité: Humidity % 35 % 44 %
Vitesse du vent: WindSpeedKMH mph 0.0 mph 1.7 mph
Rafales: WindSpeedGustKMH mph - -
Vent:- - SE
Pression: 0 in 30 in -
Précipitations: 0 in    
Historical Graphs
 
 
Mesures pour : Mai 28, 2017
Heure Temperature Point de rosée Pression Vent Vitesse du vent Rafales Humidité Pluie (par heure) Conditions
32 °F 32 °F 0 in Calm     Humidity % 0 in SoftwareType W/m2
00:10 70.3 °F 50.2 °F 30 in NNW 1.8 mph 1.8 mph 49 % 0 in open2300-1.11 W/m2
01:11 69.8 °F 50.9 °F 30 in Calm     51 % 0 in open2300-1.11 W/m2
02:10 68.4 °F 50.5 °F 30 in NNE 5.8 mph 5.8 mph 53 % 0 in open2300-1.11 W/m2
03:10 66.9 °F 50.2 °F 30 in NNW 2.1 mph 2.1 mph 55 % 0 in open2300-1.11 W/m2
04:10 66 °F 50.4 °F 30 in North 1.8 mph 1.8 mph 57 % 0 in open2300-1.11 W/m2
05:10 65.8 °F 50.7 °F 30 in Calm   2.1 mph 58 % 0 in open2300-1.11 W/m2
06:10 66.2 °F 51.1 °F 30 in Calm     58 % 0 in open2300-1.11 W/m2
07:11 66.7 °F 52 °F 30 in Calm     59 % 0 in open2300-1.11 W/m2
08:10 73 °F 55.2 °F 30 in Calm     54 % 0 in open2300-1.11 W/m2
09:10 71.8 °F 54.7 °F 30 in Calm     55 % 0 in open2300-1.11 W/m2
10:10 75.4 °F 58.1 °F 30.1 in North 1.1 mph 7.2 mph 55 % 0 in open2300-1.11 W/m2
11:10 81.7 °F 60.6 °F 30.1 in SE 7.6 mph 7.6 mph 49 % 0 in open2300-1.11 W/m2
12:10 84.2 °F 59.4 °F 30.1 in Calm   4.0 mph 43 % 0 in open2300-1.11 W/m2
13:10 84.4 °F 55.2 °F 30.1 in SW 7.9 mph 13.0 mph 37 % 0 in open2300-1.11 W/m2
14:10 84.4 °F 57.6 °F 30 in Calm   3.5 mph 40 % 0 in open2300-1.11 W/m2
15:10 84.4 °F 55.2 °F 30 in East 2.1 mph 2.6 mph 37 % 0 in open2300-1.11 W/m2
16:10 84 °F 53.2 °F 30 in SSW 3.2 mph 10.8 mph 35 % 0 in open2300-1.11 W/m2
17:10 82.4 °F 52.5 °F 30 in SSE 2.1 mph 4.0 mph 36 % 0 in open2300-1.11 W/m2
18:10 81.5 °F 51.8 °F 30 in Calm   2.1 mph 36 % 0 in open2300-1.11 W/m2
19:10 79.7 °F 50.2 °F 30 in WSW 3.2 mph 5.5 mph 36 % 0 in open2300-1.11 W/m2
20:10 78.4 °F 48.4 °F 30 in Calm     35 % 0 in open2300-1.11 W/m2
21:10 74.8 °F 45.9 °F 30 in Calm     36 % 0 in open2300-1.11 W/m2
22:10 71.4 °F 44.4 °F 30 in North 1.4 mph 1.4 mph 38 % 0 in open2300-1.11 W/m2
23:11 70 °F 44.6 °F 30 in NNE 1.4 mph 1.4 mph 40 % 0 in open2300-1.11 W/m2
Observations météo à CASSIS
WU-History script by Weather Underground - 1 mb